Time;durP1;ratioP1;P1;durP2;ratioP2;P2;SDS_P1;SDS_P2;PMS_P1;PMS_P2;Temp;Humidity;BMP_temperature;BMP_pressure;BME280_temperature;BME280_humidity;BME280_pressure;Samples;Min_cycle;Max_cycle;Signal;HPM_P1;HPM_P2
2023/04/19 00:01:49;;;;;;;14.63;8.55;;;;;;;7.47;nan;102696.88;4955313;28;20042;-40
2023/04/19 00:04:14;;;;;;;10.18;9.18;;;;;;;7.52;nan;102700.41;4939505;28;20511;-46
2023/04/19 00:06:43;;;;;;;10.02;9.02;;;;;;;7.53;nan;102710.03;4955700;28;20474;-43
2023/04/19 00:09:08;;;;;;;10.55;9.45;;;;;;;7.51;nan;102722.22;4972897;28;20090;-42
2023/04/19 00:11:34;;;;;;;9.27;8.38;;;;;;;7.16;nan;102644.16;4954525;28;20117;-46
2023/04/19 00:13:59;;;;;;;10.07;8.38;;;;;;;7.11;nan;102640.63;4972780;28;20113;-44
2023/04/19 00:16:25;;;;;;;9.70;8.75;;;;;;;7.12;nan;102644.97;4972809;28;20074;-43
2023/04/19 00:18:50;;;;;;;10.27;8.63;;;;;;;7.42;nan;102699.41;4975058;28;20043;-46
2023/04/19 00:21:15;;;;;;;9.40;8.50;;;;;;;7.06;nan;102644.94;4975921;28;20550;-41
2023/04/19 00:23:41;;;;;;;11.93;9.60;;;;;;;7.29;nan;102698.44;4977757;28;20394;-44
2023/04/19 00:26:06;;;;;;;9.98;8.90;;;;;;;7.17;nan;102674.72;4978228;28;20041;-44
2023/04/19 00:28:33;;;;;;;10.20;9.18;;;;;;;6.99;nan;102639.59;4994744;28;20050;-45
2023/04/19 00:30:58;;;;;;;11.00;8.45;;;;;;;7.30;nan;102717.63;4995747;28;20117;-43
2023/04/19 00:33:23;;;;;;;11.77;9.50;;;;;;;6.90;nan;102626.41;4995576;28;20192;-44
2023/04/19 00:35:49;;;;;;;10.43;9.05;;;;;;;7.24;nan;102688.75;4995615;28;20034;-43
2023/04/19 00:38:14;;;;;;;10.18;9.15;;;;;;;7.18;nan;102689.56;4995350;28;20104;-46
2023/04/19 00:40:39;;;;;;;10.68;9.10;;;;;;;7.20;nan;102687.84;4995415;28;20034;-44
2023/04/19 00:43:05;;;;;;;9.95;8.95;;;;;;;6.78;nan;102625.41;4995529;28;20049;-43
2023/04/19 00:45:31;;;;;;;12.05;9.20;;;;;;;7.14;nan;102693.03;4994173;28;20042;-43
2023/04/19 00:47:57;;;;;;;10.38;9.27;;;;;;;7.07;nan;102667.63;4995363;28;20096;-43
2023/04/19 00:50:22;;;;;;;10.35;9.25;;;;;;;6.69;nan;102614.84;4977952;28;20038;-42
2023/04/19 00:52:47;;;;;;;12.82;9.45;;;;;;;7.11;nan;102698.22;4993703;28;20145;-47
2023/04/19 00:55:13;;;;;;;10.75;9.05;;;;;;;7.08;nan;102689.47;4995197;28;20034;-44
2023/04/19 00:57:39;;;;;;;10.43;8.73;;;;;;;7.03;nan;102692.03;4995146;28;20030;-45
2023/04/19 01:00:07;;;;;;;11.43;10.23;;;;;;;6.89;nan;102663.94;4994975;28;20097;-45
2023/04/19 01:02:32;;;;;;;11.15;9.98;;;;;;;6.84;nan;102647.28;4993210;28;20417;-43
2023/04/19 01:04:57;;;;;;;10.40;9.38;;;;;;;6.83;nan;102630.69;4994932;28;20034;-44
2023/04/19 01:07:23;;;;;;;12.40;9.57;;;;;;;7.09;nan;102676.38;4993763;28;20606;-46
2023/04/19 01:09:48;;;;;;;11.80;9.48;;;;;;;7.04;nan;102678.06;4993422;28;20100;-43
2023/04/19 01:12:13;;;;;;;10.63;9.00;;;;;;;7.00;nan;102670.16;4993576;28;20109;-41
2023/04/19 01:14:39;;;;;;;10.40;9.30;;;;;;;6.93;nan;102674.44;4993595;28;20462;-43
2023/04/19 01:17:06;;;;;;;13.32;10.27;;;;;;;6.39;nan;102579.59;4994772;28;20031;-42
2023/04/19 01:19:33;;;;;;;10.95;9.85;;;;;;;6.91;nan;102675.28;4994024;28;20034;-43
2023/04/19 01:21:59;;;;;;;11.15;10.05;;;;;;;6.88;nan;102676.16;4994769;28;20066;-45
2023/04/19 01:24:24;;;;;;;11.73;10.27;;;;;;;6.84;nan;102674.34;4977389;28;20105;-43
2023/04/19 01:26:50;;;;;;;11.82;10.63;;;;;;;6.92;nan;102666.59;4975018;28;20039;-48
2023/04/19 01:29:17;;;;;;;11.90;10.35;;;;;;;6.92;nan;102672.69;4974107;28;20117;-45
2023/04/19 01:31:42;;;;;;;13.18;10.38;;;;;;;6.75;nan;102634.97;4974974;28;20406;-42
2023/04/19 01:34:08;;;;;;;12.02;10.27;;;;;;;6.51;nan;102593.69;4974986;28;20039;-41
2023/04/19 01:36:33;;;;;;;11.73;10.48;;;;;;;6.50;nan;102598.91;4973874;28;20042;-43
2023/04/19 01:38:59;;;;;;;12.77;10.43;;;;;;;6.58;nan;102620.81;4974946;28;20134;-44
2023/04/19 01:41:25;;;;;;;10.90;9.80;;;;;;;6.80;nan;102670.78;4974897;28;20470;-42
2023/04/19 01:43:51;;;;;;;12.27;11.00;;;;;;;6.79;nan;102648.13;4973599;28;20042;-46
2023/04/19 01:46:17;;;;;;;12.65;10.95;;;;;;;6.49;nan;102597.13;4973606;28;20035;-40
2023/04/19 01:48:42;;;;;;;14.57;10.75;;;;;;;6.89;nan;102679.66;4974748;28;20085;-41
2023/04/19 01:51:07;;;;;;;14.48;11.50;;;;;;;6.51;nan;102600.69;4974679;28;20035;-39
2023/04/19 01:53:33;;;;;;;16.73;11.02;;;;;;;6.88;nan;102664.78;4973625;28;20074;-40
2023/04/19 01:55:58;;;;;;;12.55;11.15;;;;;;;6.47;nan;102586.69;4974625;28;20038;-46
2023/04/19 01:58:23;;;;;;;13.88;10.98;;;;;;;6.54;nan;102604.19;4974477;28;20039;-45
2023/04/19 02:00:49;;;;;;;12.68;10.45;;;;;;;6.93;nan;102668.31;4974464;28;20094;-41
2023/04/19 02:03:14;;;;;;;14.50;12.02;;;;;;;6.58;nan;102594.63;4974413;28;20471;-44
2023/04/19 02:05:39;;;;;;;14.68;12.00;;;;;;;6.60;nan;102593.78;4974120;28;20088;-43
2023/04/19 02:08:05;;;;;;;15.10;12.32;;;;;;;6.97;nan;102659.66;4973162;28;20046;-44
2023/04/19 02:10:30;;;;;;;12.90;11.55;;;;;;;6.60;nan;102585.94;4974085;28;20122;-42
2023/04/19 02:12:55;;;;;;;14.80;12.38;;;;;;;6.94;nan;102652.66;4973995;28;20070;-42
2023/04/19 02:15:21;;;;;;;13.93;12.55;;;;;;;6.47;nan;102575.31;4974016;28;20075;-41
2023/04/19 02:17:46;;;;;;;13.40;12.00;;;;;;;6.96;nan;102658.78;4974319;28;20061;-44
2023/04/19 02:20:11;;;;;;;14.20;12.50;;;;;;;6.95;nan;102649.16;4974201;28;20109;-43
2023/04/19 02:22:37;;;;;;;14.95;12.57;;;;;;;6.92;nan;102648.28;4956572;28;20146;-42
2023/04/19 02:25:03;;;;;;;14.82;12.63;;;;;;;6.92;nan;102648.28;4973314;28;20049;-45
2023/04/19 02:27:28;;;;;;;14.00;12.48;;;;;;;6.27;nan;102524.53;4973892;28;20115;-40
2023/04/19 02:29:54;;;;;;;15.15;12.55;;;;;;;6.59;nan;102588.56;4972805;28;20189;-45
2023/04/19 02:32:19;;;;;;;17.52;12.75;;;;;;;6.73;nan;102581.72;4974046;28;20035;-44
2023/04/19 02:34:45;;;;;;;13.68;12.27;;;;;;;7.19;nan;102648.53;4973934;28;20434;-40
2023/04/19 02:37:10;;;;;;;14.73;12.95;;;;;;;7.22;nan;102659.94;4973678;28;20031;-40
2023/04/19 02:39:35;;;;;;;15.23;13.50;;;;;;;7.25;nan;102662.59;4973564;28;20122;-41
2023/04/19 02:42:01;;;;;;;15.07;13.43;;;;;;;7.38;nan;102662.72;4973128;28;20119;-41
2023/04/19 02:44:26;;;;;;;14.13;12.07;;;;;;;7.04;nan;102588.16;4972816;28;20043;-45
2023/04/19 02:46:52;;;;;;;16.52;13.15;;;;;;;7.50;nan;102668.06;4973818;28;20135;-45
2023/04/19 02:49:18;;;;;;;15.25;13.63;;;;;;;7.40;nan;102629.53;4973699;28;20434;-42
2023/04/19 02:51:43;;;;;;;14.77;12.13;;;;;;;7.55;nan;102642.78;4973762;28;20031;-43
2023/04/19 02:54:10;;;;;;;14.80;12.50;;;;;;;7.40;nan;102608.56;4973730;28;20042;-41
2023/04/19 02:56:35;;;;;;;14.40;12.35;;;;;;;7.44;nan;102594.66;4973683;28;20041;-46
2023/04/19 02:59:02;;;;;;;15.13;12.68;;;;;;;7.83;nan;102668.34;4973278;28;20039;-41
2023/04/19 03:01:28;;;;;;;16.08;13.10;;;;;;;7.85;nan;102657.00;4955427;28;20031;-42
2023/04/19 03:03:53;;;;;;;15.25;12.48;;;;;;;7.83;nan;102634.25;4973609;28;20054;-41
2023/04/19 03:06:18;;;;;;;13.30;11.85;;;;;;;7.96;nan;102649.22;4973277;28;20054;-42
2023/04/19 03:08:44;;;;;;;13.98;12.50;;;;;;;8.01;nan;102678.97;4973326;28;20035;-42
2023/04/19 03:11:14;;;;;;;18.40;13.77;;;;;;;7.98;nan;102644.88;4973421;28;20038;-47
2023/04/19 03:13:40;;;;;;;13.95;12.40;;;;;;;8.10;nan;102672.91;4956281;28;20182;-43
2023/04/19 03:16:05;;;;;;;13.70;12.30;;;;;;;7.93;nan;102626.50;4973370;28;20387;-45
2023/04/19 03:18:31;;;;;;;14.63;12.93;;;;;;;8.14;nan;102665.09;4972798;28;20086;-45
2023/04/19 03:20:56;;;;;;;14.88;11.85;;;;;;;7.77;nan;102595.78;4956303;28;20043;-41
2023/04/19 03:23:21;;;;;;;14.48;12.95;;;;;;;8.17;nan;102657.22;4973178;28;20053;-44
2023/04/19 03:25:47;;;;;;;15.90;12.98;;;;;;;7.84;nan;102591.47;4973254;28;20041;-44
2023/04/19 03:28:12;;;;;;;14.00;12.25;;;;;;;8.22;nan;102658.16;4973358;28;20037;-42
2023/04/19 03:30:38;;;;;;;14.90;13.18;;;;;;;8.06;nan;102616.94;4973012;28;20102;-45
2023/04/19 03:33:03;;;;;;;14.05;12.52;;;;;;;7.98;nan;102623.00;4972994;28;20085;-48
2023/04/19 03:35:31;;;;;;;15.13;13.05;;;;;;;8.22;nan;102638.91;4954575;28;20566;-44
2023/04/19 03:37:56;;;;;;;14.05;12.50;;;;;;;8.30;nan;102647.72;4973377;28;20043;-41
2023/04/19 03:40:21;;;;;;;14.35;12.40;;;;;;;8.29;nan;102644.22;4923945;28;20046;-41
2023/04/19 03:42:47;;;;;;;14.73;13.23;;;;;;;7.98;nan;102595.03;4972964;28;20035;-44
2023/04/19 03:45:12;;;;;;;13.80;12.30;;;;;;;7.96;nan;102582.78;4955958;28;20042;-48
2023/04/19 03:47:37;;;;;;;13.57;11.10;;;;;;;8.02;nan;102583.72;4971571;28;20102;-41
2023/04/19 03:50:03;;;;;;;12.63;11.32;;;;;;;8.06;nan;102595.94;4971929;28;20151;-45
2023/04/19 03:52:28;;;;;;;14.05;12.55;;;;;;;8.33;nan;102637.25;4957839;28;20126;-43
2023/04/19 03:54:54;;;;;;;13.57;12.18;;;;;;;8.41;nan;102656.53;4975848;28;20074;-47
2023/04/19 03:57:19;;;;;;;13.15;11.73;;;;;;;8.41;nan;102646.03;4976898;28;20038;-41
2023/04/19 03:59:45;;;;;;;18.10;12.73;;;;;;;8.39;nan;102642.53;4976996;28;20500;-45
2023/04/19 04:02:10;;;;;;;16.67;13.10;;;;;;;8.43;nan;102653.03;4943591;28;20035;-43
2023/04/19 04:04:36;;;;;;;13.38;12.02;;;;;;;8.34;nan;102637.25;4976661;28;20474;-49
2023/04/19 04:07:01;;;;;;;14.40;12.65;;;;;;;8.45;nan;102639.94;4975887;28;20121;-43
2023/04/19 04:09:27;;;;;;;14.25;11.85;;;;;;;8.31;nan;102612.75;4976406;28;20062;-41
2023/04/19 04:11:52;;;;;;;12.90;11.32;;;;;;;8.51;nan;102652.19;4959331;28;20046;-45
2023/04/19 04:14:18;;;;;;;14.77;11.88;;;;;;;8.47;nan;102649.56;4959822;28;20039;-50
2023/04/19 04:16:47;;;;;;;14.40;11.57;;;;;;;8.48;nan;102639.94;4959109;28;20039;-49
2023/04/19 04:19:12;;;;;;;14.52;11.90;;;;;;;8.53;nan;102656.59;4976511;28;20043;-46
2023/04/19 04:21:37;;;;;;;13.15;11.65;;;;;;;8.54;nan;102660.97;4959199;28;20030;-42
2023/04/19 04:24:04;;;;;;;16.45;11.90;;;;;;;8.53;nan;102655.69;4975833;28;20057;-49
2023/04/19 04:26:32;;;;;;;13.35;11.95;;;;;;;8.52;nan;102657.47;4976167;28;20082;-42
2023/04/19 04:29:00;;;;;;;12.63;11.32;;;;;;;8.53;nan;102655.69;4976011;28;20375;-42
2023/04/19 04:31:26;;;;;;;12.63;10.75;;;;;;;8.51;nan;102649.56;4959306;28;20035;-47
2023/04/19 04:33:54;;;;;;;14.05;11.45;;;;;;;7.17;nan;102423.31;4975900;28;20053;-44
2023/04/19 04:36:19;;;;;;;12.43;11.13;;;;;;;8.57;nan;102683.72;4976148;28;20031;-42
2023/04/19 04:38:45;;;;;;;12.25;11.05;;;;;;;8.59;nan;102661.88;4958799;28;20041;-45
2023/04/19 04:41:11;;;;;;;14.05;10.77;;;;;;;8.60;nan;102668.88;4975511;28;20041;-42
2023/04/19 04:43:37;;;;;;;12.13;10.02;;;;;;;8.60;nan;102653.13;4958695;28;20039;-42
2023/04/19 04:46:02;;;;;;;13.65;12.00;;;;;;;8.50;nan;102640.81;4975833;28;20561;-40
2023/04/19 04:48:29;;;;;;;12.98;11.55;;;;;;;8.64;nan;102664.53;4976100;28;20058;-42
2023/04/19 04:50:55;;;;;;;12.80;11.38;;;;;;;8.28;nan;102603.13;4958896;28;20019;-48
2023/04/19 04:53:21;;;;;;;12.80;10.65;;;;;;;8.70;nan;102669.81;4958311;28;20039;-49
2023/04/19 04:55:46;;;;;;;13.10;11.40;;;;;;;8.70;nan;102664.56;4958727;28;20035;-41
2023/04/19 04:58:11;;;;;;;12.63;10.07;;;;;;;8.71;nan;102675.06;4974982;28;20482;-47
2023/04/19 05:00:37;;;;;;;10.88;9.73;;;;;;;8.59;nan;102645.22;4974476;28;20129;-45
2023/04/19 05:03:02;;;;;;;11.23;10.13;;;;;;;8.60;nan;102653.13;4971198;28;20039;-43
2023/04/19 05:05:28;;;;;;;11.88;10.52;;;;;;;8.75;nan;102668.97;4975422;28;20038;-42
2023/04/19 05:07:54;;;;;;;11.88;10.40;;;;;;;8.65;nan;102656.66;4973490;28;20043;-43
2023/04/19 05:10:19;;;;;;;10.75;9.65;;;;;;;8.73;nan;102672.41;4954361;28;20038;-46
2023/04/19 05:12:45;;;;;;;12.98;10.77;;;;;;;8.72;nan;102684.69;4973772;28;20074;-44
2023/04/19 05:15:10;;;;;;;13.07;10.55;;;;;;;8.70;nan;102678.53;4971157;28;20114;-43
2023/04/19 05:17:36;;;;;;;13.38;10.63;;;;;;;8.68;nan;102680.28;4975173;28;20062;-45
2023/04/19 05:20:01;;;;;;;11.68;10.05;;;;;;;8.65;nan;102682.91;4961291;28;20371;-47
2023/04/19 05:22:27;;;;;;;12.43;10.98;;;;;;;8.59;nan;102679.34;4956976;28;20035;-45
2023/04/19 05:24:53;;;;;;;13.73;10.48;;;;;;;8.53;nan;102680.22;4966516;28;20042;-43
2023/04/19 05:27:18;;;;;;;11.05;9.68;;;;;;;8.38;nan;102662.63;4993973;28;20035;-44
2023/04/19 05:29:43;;;;;;;11.48;10.25;;;;;;;8.36;nan;102674.88;4979463;28;20034;-44
2023/04/19 05:32:09;;;;;;;12.18;9.95;;;;;;;8.05;nan;102628.31;4992896;28;20039;-47
2023/04/19 05:34:35;;;;;;;12.20;9.88;;;;;;;8.03;nan;102616.91;4976209;28;20049;-43
2023/04/19 05:37:01;;;;;;;12.98;10.32;;;;;;;8.36;nan;102679.25;4990919;28;20030;-45
2023/04/19 05:39:27;;;;;;;12.35;10.98;;;;;;;8.37;nan;102691.50;4957454;28;20030;-45
2023/04/19 05:41:52;;;;;;;11.02;9.88;;;;;;;8.01;nan;102625.66;4975004;28;20435;-45
2023/04/19 05:44:17;;;;;;;11.93;10.27;;;;;;;8.08;nan;102624.81;4974855;28;20085;-46
2023/04/19 05:46:43;;;;;;;10.88;9.77;;;;;;;8.47;nan;102694.19;4981534;28;20038;-44
2023/04/19 05:49:08;;;;;;;12.52;9.25;;;;;;;8.22;nan;102644.16;4994032;28;20066;-45
2023/04/19 05:51:33;;;;;;;10.80;9.77;;;;;;;8.33;nan;102642.50;4994087;28;20382;-45
2023/04/19 05:53:59;;;;;;;10.35;9.15;;;;;;;8.72;nan;102703.06;4975634;28;20394;-41
2023/04/19 05:56:25;;;;;;;10.75;9.60;;;;;;;8.43;nan;102641.69;4973477;28;20042;-44
2023/04/19 05:58:50;;;;;;;10.88;9.35;;;;;;;8.81;nan;102715.38;4976681;28;20077;-41
2023/04/19 06:01:16;;;;;;;12.82;9.30;;;;;;;8.73;nan;102701.28;4993974;28;20030;-46
2023/04/19 06:03:41;;;;;;;13.15;10.07;;;;;;;8.45;nan;102655.69;4975439;28;20054;-45
2023/04/19 06:06:06;;;;;;;10.82;8.88;;;;;;;8.80;nan;102710.97;4978287;28;20043;-45
2023/04/19 06:08:31;;;;;;;11.13;9.45;;;;;;;8.53;nan;102684.56;4983283;28;20042;-43
2023/04/19 06:10:58;;;;;;;10.50;9.18;;;;;;;8.86;nan;102725.00;4993885;28;20473;-47
2023/04/19 06:13:23;;;;;;;9.85;8.77;;;;;;;8.52;nan;102644.34;4992116;28;20046;-40
2023/04/19 06:15:49;;;;;;;10.30;9.20;;;;;;;8.94;nan;102723.28;4975700;28;20031;-43
2023/04/19 06:18:14;;;;;;;11.82;9.27;;;;;;;8.97;nan;102720.69;4957485;28;20121;-44
2023/04/19 06:20:40;;;;;;;11.93;9.65;;;;;;;8.76;nan;102680.31;4993406;28;20501;-47
2023/04/19 06:23:06;;;;;;;11.50;8.88;;;;;;;9.08;nan;102725.97;4988897;28;20443;-43
2023/04/19 06:25:31;;;;;;;10.27;8.38;;;;;;;9.16;nan;102719.00;4973079;28;20046;-42
2023/04/19 06:27:56;;;;;;;8.73;7.82;;;;;;;9.22;nan;102719.03;4973544;28;20049;-41
2023/04/19 06:30:22;;;;;;;11.68;8.40;;;;;;;9.25;nan;102715.53;4972996;28;20042;-46
2023/04/19 06:32:47;;;;;;;9.60;7.95;;;;;;;8.99;nan;102655.88;4973465;28;20142;-44
2023/04/19 06:35:13;;;;;;;9.70;7.85;;;;;;;9.39;nan;102716.44;4971658;28;20050;-48
2023/04/19 06:37:38;;;;;;;8.70;7.70;;;;;;;9.56;nan;102719.97;4971237;28;20364;-44
2023/04/19 06:40:07;;;;;;;12.23;7.80;;;;;;;9.63;nan;102733.13;4973808;28;20042;-44
2023/04/19 06:42:32;;;;;;;8.40;7.60;;;;;;;9.64;nan;102723.47;4973463;28;20039;-44
2023/04/19 06:44:57;;;;;;;8.40;7.50;;;;;;;9.81;nan;102741.91;4972636;28;20109;-43
2023/04/19 06:47:23;;;;;;;8.93;7.45;;;;;;;9.76;nan;102730.50;4973265;28;20078;-41
2023/04/19 06:49:48;;;;;;;11.82;8.30;;;;;;;9.46;nan;102677.00;4955853;28;20438;-43
2023/04/19 06:52:13;;;;;;;7.38;6.68;;;;;;;9.87;nan;102741.91;4971965;28;20479;-45
2023/04/19 06:54:39;;;;;;;9.57;7.05;;;;;;;9.96;nan;102747.19;4956210;28;20525;-44
2023/04/19 06:57:04;;;;;;;8.20;6.82;;;;;;;10.20;nan;102739.31;4973614;28;20035;-40
2023/04/19 06:59:31;;;;;;;7.90;7.10;;;;;;;10.41;nan;102720.00;4973510;28;20050;-45
2023/04/19 07:01:57;;;;;;;10.00;6.88;;;;;;;10.91;nan;102759.38;4972189;28;20462;-44
2023/04/19 07:04:22;;;;;;;9.55;6.90;;;;;;;11.38;nan;102741.59;4972851;28;20499;-40
2023/04/19 07:06:51;;;;;;;7.50;6.32;;;;;;;11.32;nan;102684.47;4955338;28;20129;-44
2023/04/19 07:09:17;;;;;;;7.20;6.50;;;;;;;12.01;nan;102700.72;4973471;28;20046;-45
2023/04/19 07:11:42;;;;;;;9.40;6.95;;;;;;;12.71;nan;102743.13;4973319;28;20031;-41
2023/04/19 07:14:07;;;;;;;7.47;6.78;;;;;;;12.43;nan;102695.91;4972683;28;20046;-45
2023/04/19 07:16:32;;;;;;;6.90;6.13;;;;;;;12.79;nan;102704.28;4970209;28;20461;-46
2023/04/19 07:18:58;;;;;;;7.18;6.15;;;;;;;12.78;nan;102718.38;4954195;28;20047;-43
2023/04/19 07:21:31;;;;;;;8.00;6.32;;;;;;;13.14;nan;102735.59;4972828;28;20041;-48
2023/04/19 07:23:56;;;;;;;7.82;6.47;;;;;;;13.48;nan;102746.59;4984234;28;20054;-42
2023/04/19 07:26:22;;;;;;;7.70;6.55;;;;;;;13.82;nan;102760.19;4992627;28;20042;-43
2023/04/19 07:28:48;;;;;;;8.43;6.18;;;;;;;13.89;nan;102704.47;4975131;28;20046;-44
2023/04/19 07:31:15;;;;;;;6.63;5.55;;;;;;;14.38;nan;102769.91;4992530;28;20038;-45
2023/04/19 07:33:40;;;;;;;6.47;5.85;;;;;;;14.01;nan;102757.22;4992367;28;20486;-41
2023/04/19 07:36:06;;;;;;;9.80;6.10;;;;;;;14.17;nan;102755.22;4974511;28;20097;-44
2023/04/19 07:38:31;;;;;;;9.05;6.13;;;;;;;14.12;nan;102741.19;4992508;28;20429;-47
2023/04/19 07:40:57;;;;;;;6.55;5.85;;;;;;;14.39;nan;102693.03;4992379;28;20481;-43
2023/04/19 07:43:22;;;;;;;5.88;5.28;;;;;;;14.68;nan;102752.56;4992577;28;20050;-43
2023/04/19 07:45:47;;;;;;;6.70;5.75;;;;;;;14.55;nan;102696.28;4992429;28;20042;-40
2023/04/19 07:48:13;;;;;;;6.43;5.30;;;;;;;14.94;nan;102713.16;4991939;28;20398;-40
2023/04/19 07:50:38;;;;;;;5.65;4.93;;;;;;;14.85;nan;102753.13;4970216;28;20546;-42
2023/04/19 07:53:03;;;;;;;6.10;5.47;;;;;;;14.60;nan;102766.84;4987742;28;20093;-47
2023/04/19 07:55:29;;;;;;;6.05;5.25;;;;;;;14.04;nan;102749.25;4992847;28;20129;-41
2023/04/19 07:57:54;;;;;;;7.25;5.28;;;;;;;14.32;nan;102696.72;4991116;28;20062;-43
2023/04/19 08:00:22;;;;;;;6.63;4.75;;;;;;;15.41;nan;102757.25;4990282;28;20034;-40
2023/04/19 08:02:48;;;;;;;6.43;5.35;;;;;;;16.00;nan;102747.88;4990175;28;20034;-44
2023/04/19 08:05:17;;;;;;;5.95;5.40;;;;;;;15.52;nan;102704.81;4973200;28;20121;-42
2023/04/19 08:07:43;;;;;;;6.38;5.75;;;;;;;16.00;nan;102747.88;4972819;28;20109;-44
2023/04/19 08:10:09;;;;;;;8.38;5.80;;;;;;;15.66;nan;102754.03;4971749;28;20034;-40
2023/04/19 08:12:35;;;;;;;4.97;4.53;;;;;;;15.74;nan;102735.25;4987142;28;20042;-41
2023/04/19 08:15:01;;;;;;;5.63;5.05;;;;;;;15.62;nan;102752.34;4973130;28;20050;-40
2023/04/19 08:17:27;;;;;;;5.30;4.80;;;;;;;15.80;nan;102736.88;4972696;28;20034;-40
2023/04/19 08:19:52;;;;;;;4.97;4.50;;;;;;;15.26;nan;102734.56;4989259;28;20440;-45
2023/04/19 08:22:20;;;;;;;7.70;4.80;;;;;;;15.26;nan;102667.38;4990844;28;20448;-41
2023/04/19 08:24:48;;;;;;;6.50;4.90;;;;;;;15.75;nan;102742.31;4988330;28;20434;-44
2023/04/19 08:27:14;;;;;;;7.65;5.03;;;;;;;16.13;nan;102673.19;4972968;28;20045;-43
2023/04/19 08:29:39;;;;;;;6.45;4.90;;;;;;;15.88;nan;102685.31;4972714;28;20043;-42
2023/04/19 08:32:12;;;;;;;5.88;4.68;;;;;;;16.28;nan;102738.34;4973373;28;20042;-47
2023/04/19 08:34:38;;;;;;;4.93;4.22;;;;;;;16.38;nan;102758.44;4986482;28;20050;-39
2023/04/19 08:37:04;;;;;;;5.22;4.18;;;;;;;16.59;nan;102682.56;4981588;28;20089;-43
2023/04/19 08:39:30;;;;;;;6.25;4.35;;;;;;;16.99;nan;102744.34;4962450;28;20026;-40
2023/04/19 08:42:03;;;;;;;5.07;3.92;;;;;;;16.80;nan;102697.94;4993667;28;20030;-41
2023/04/19 08:44:30;;;;;;;8.05;4.40;;;;;;;16.87;nan;102683.53;4994204;28;20114;-44
2023/04/19 08:46:57;;;;;;;4.47;4.07;;;;;;;16.84;nan;102695.13;4976525;28;20080;-44
2023/04/19 08:49:23;;;;;;;6.72;3.90;;;;;;;17.31;nan;102754.91;4993432;28;20354;-40
2023/04/19 08:51:49;;;;;;;4.05;3.08;;;;;;;16.85;nan;102735.91;4976764;28;20069;-40
2023/04/19 08:54:15;;;;;;;6.57;3.15;;;;;;;17.10;nan;102744.06;4975421;28;20076;-41
2023/04/19 08:56:40;;;;;;;4.88;3.15;;;;;;;17.58;nan;102720.41;4976077;28;20084;-40
2023/04/19 08:59:05;;;;;;;4.65;2.85;;;;;;;17.39;nan;102742.28;4976115;28;20125;-43
2023/04/19 09:01:31;;;;;;;4.80;3.30;;;;;;;16.96;nan;102739.13;4993851;28;20042;-40
2023/04/19 09:03:57;;;;;;;3.42;3.03;;;;;;;17.25;nan;102732.97;4976433;28;20043;-39
2023/04/19 09:06:22;;;;;;;4.57;3.03;;;;;;;16.94;nan;102682.44;4960576;28;20042;-44
2023/04/19 09:08:48;;;;;;;8.98;3.10;;;;;;;17.43;nan;102743.91;4994693;28;20030;-42
2023/04/19 09:11:13;;;;;;;3.00;2.80;;;;;;;17.67;nan;102739.63;4993515;28;20042;-41
2023/04/19 09:13:41;;;;;;;4.78;2.90;;;;;;;18.04;nan;102741.13;4975472;28;20100;-41
2023/04/19 09:16:22;;;;;;;4.53;3.10;;;;;;;17.32;nan;102734.50;4993481;28;20831;-40
2023/04/19 09:18:56;;;;;;;3.45;2.80;;;;;;;18.05;nan;102729.50;4993130;28;20039;-42
2023/04/19 09:21:29;;;;;;;2.97;2.67;;;;;;;18.69;nan;102713.03;4993045;28;20042;-42
2023/04/19 09:23:55;;;;;;;2.95;2.42;;;;;;;18.99;nan;102732.38;4993620;28;20062;-40
2023/04/19 09:26:20;;;;;;;5.35;2.88;;;;;;;19.12;nan;102728.31;4993408;28;20114;-41
2023/04/19 09:29:03;;;;;;;6.57;2.67;;;;;;;18.83;nan;102733.88;4993334;28;20046;-42
2023/04/19 09:31:31;;;;;;;7.80;2.80;;;;;;;18.38;nan;102736.38;4985282;28;20034;-44
2023/04/19 09:33:56;;;;;;;4.28;3.13;;;;;;;17.76;nan;102672.75;4992563;28;20053;-44
2023/04/19 09:36:30;;;;;;;4.00;3.22;;;;;;;19.19;nan;102718.28;4982873;28;20038;-42
2023/04/19 09:38:55;;;;;;;2.58;2.15;;;;;;;19.18;nan;102722.75;4976096;28;20030;-40
2023/04/19 09:41:21;;;;;;;11.55;3.00;;;;;;;18.96;nan;102657.78;4974467;28;20057;-44
2023/04/19 09:43:46;;;;;;;4.40;2.38;;;;;;;19.46;nan;102703.88;4991456;28;20065;-40
2023/04/19 09:46:32;;;;;;;5.47;2.35;;;;;;;19.34;nan;102701.66;4975426;28;20129;-43
2023/04/19 09:49:24;;;;;;;4.18;2.40;;;;;;;19.84;nan;102723.69;4991827;28;20034;-42
2023/04/19 09:51:50;;;;;;;2.97;2.40;;;;;;;19.17;nan;102718.34;4988779;28;20073;-40
2023/04/19 09:54:17;;;;;;;3.85;2.10;;;;;;;18.37;nan;102721.28;4975268;28;20038;-44
2023/04/19 09:56:43;;;;;;;2.65;2.15;;;;;;;18.68;nan;102710.44;4992286;28;20121;-41
2023/04/19 09:59:09;;;;;;;4.82;2.47;;;;;;;18.24;nan;102646.19;4973951;28;20148;-41
2023/04/19 10:01:37;;;;;;;2.22;2.03;;;;;;;18.93;nan;102671.25;4974973;28;20413;-41
2023/04/19 10:04:05;;;;;;;1.88;1.60;;;;;;;18.91;nan;102651.75;4992601;28;20453;-42
2023/04/19 10:06:31;;;;;;;1.85;1.73;;;;;;;19.50;nan;102700.13;4992026;28;20066;-43
2023/04/19 10:09:00;;;;;;;2.47;2.08;;;;;;;19.76;nan;102669.72;4973238;28;20037;-41
2023/04/19 10:11:37;;;;;;;5.18;2.33;;;;;;;19.38;nan;102706.81;4992289;28;20030;-43
2023/04/19 10:14:07;;;;;;;2.22;1.70;;;;;;;19.83;nan;102706.78;4974711;28;20045;-42
2023/04/19 10:16:33;;;;;;;3.42;2.10;;;;;;;19.16;nan;102708.59;4974416;28;20039;-43
2023/04/19 10:18:59;;;;;;;4.85;1.90;;;;;;;19.58;nan;102690.03;4973589;28;20042;-44
2023/04/19 10:21:27;;;;;;;1.90;1.70;;;;;;;19.98;nan;102702.59;4974167;28;20040;-43
2023/04/19 10:23:52;;;;;;;1.67;1.40;;;;;;;19.94;nan;102698.31;4974480;28;20101;-44
2023/04/19 10:26:18;;;;;;;4.20;1.75;;;;;;;20.31;nan;102692.31;4973497;28;20137;-42
2023/04/19 10:28:43;;;;;;;1.85;1.75;;;;;;;20.35;nan;102643.97;4992168;28;20054;-43
2023/04/19 10:31:12;;;;;;;2.22;1.48;;;;;;;20.64;nan;102611.41;4991957;28;20030;-42
2023/04/19 10:33:39;;;;;;;1.95;1.48;;;;;;;20.55;nan;102692.09;4990989;28;20057;-41
2023/04/19 10:36:08;;;;;;;3.45;1.70;;;;;;;19.72;nan;102702.81;4974817;28;20129;-41
2023/04/19 10:38:47;;;;;;;2.42;1.73;;;;;;;20.11;nan;102699.34;4991490;28;20038;-43
2023/04/19 10:41:14;;;;;;;3.78;1.85;;;;;;;19.53;nan;102694.69;4991458;28;20069;-41
2023/04/19 10:43:46;;;;;;;1.85;1.40;;;;;;;19.73;nan;102643.97;4992596;28;20088;-41
2023/04/19 10:46:21;;;;;;;4.80;1.60;;;;;;;20.25;nan;102689.88;4974149;28;20034;-44
2023/04/19 10:48:56;;;;;;;1.42;1.23;;;;;;;19.73;nan;102627.09;4991518;28;20042;-40
2023/04/19 10:51:31;;;;;;;1.55;1.45;;;;;;;19.89;nan;102694.97;4991472;28;20045;-41
2023/04/19 10:54:04;;;;;;;2.88;1.33;;;;;;;19.74;nan;102684.91;4990762;28;20056;-43
2023/04/19 10:56:32;;;;;;;3.38;1.35;;;;;;;20.16;nan;102693.81;4973570;28;20105;-42
2023/04/19 10:59:01;;;;;;;2.08;1.50;;;;;;;20.82;nan;102675.72;4991676;28;20030;-43
2023/04/19 11:01:44;;;;;;;1.50;1.40;;;;;;;21.17;nan;102696.38;4990609;28;20109;-42
2023/04/19 11:04:10;;;;;;;1.77;1.50;;;;;;;20.98;nan;102674.94;4990767;28;20041;-42
2023/04/19 11:06:54;;;;;;;2.28;1.33;;;;;;;21.40;nan;102692.59;4973372;28;20039;-43
2023/04/19 11:09:23;;;;;;;3.20;1.67;;;;;;;21.05;nan;102681.72;4991390;28;20490;-45
2023/04/19 11:11:48;;;;;;;2.45;1.67;;;;;;;20.53;nan;102672.56;4991211;28;20117;-44
2023/04/19 11:14:15;;;;;;;2.30;1.63;;;;;;;20.13;nan;102683.25;4956818;28;20589;-44
2023/04/19 11:16:41;;;;;;;1.70;1.60;;;;;;;20.32;nan;102681.53;4991262;28;20038;-41
2023/04/19 11:19:06;;;;;;;5.43;1.70;;;;;;;20.47;nan;102650.56;4973415;28;20168;-41
2023/04/19 11:21:32;;;;;;;1.77;1.67;;;;;;;21.22;nan;102652.38;4973791;28;20420;-43
2023/04/19 11:24:10;;;;;;;2.15;1.88;;;;;;;20.65;nan;102614.94;4991823;28;20058;-45
2023/04/19 11:26:35;;;;;;;2.47;1.83;;;;;;;21.47;nan;102667.25;4991754;28;20049;-42
2023/04/19 11:29:00;;;;;;;2.30;2.05;;;;;;;21.46;nan;102662.84;4989958;28;20038;-43
2023/04/19 11:31:26;;;;;;;3.10;2.25;;;;;;;21.50;nan;102603.69;4990966;28;20030;-43
2023/04/19 11:33:52;;;;;;;4.28;2.28;;;;;;;;;;4991389;28;20045;-45
2023/04/19 11:36:17;;;;;;;3.03;2.15;;;;;;;20.59;nan;102588.47;4991371;28;20038;-41